createdAt,value
2019-01-23T00:00:20.389Z,47.90
2019-01-23T00:02:47.806Z,47.65
2019-01-23T00:05:15.320Z,47.15
2019-01-23T00:07:42.716Z,43.87
2019-01-23T00:10:10.144Z,39.48
2019-01-23T00:12:37.596Z,39.63
2019-01-23T00:15:05.079Z,47.93
2019-01-23T00:17:32.539Z,46.23
2019-01-23T00:19:59.953Z,50.58
2019-01-23T00:22:27.346Z,34.78
2019-01-23T00:24:54.764Z,48.70
2019-01-23T00:27:22.221Z,42.85
2019-01-23T00:29:49.656Z,43.35
2019-01-23T00:32:17.095Z,47.48
2019-01-23T00:34:44.584Z,48.08
2019-01-23T00:37:12.134Z,36.58
2019-01-23T00:39:39.721Z,45.05
2019-01-23T00:42:07.198Z,45.40
2019-01-23T00:44:35.319Z,40.55
2019-01-23T00:47:02.732Z,45.33
2019-01-23T00:49:30.148Z,43.45
2019-01-23T00:51:58.356Z,49.98
2019-01-23T00:54:25.882Z,44.05
2019-01-23T00:56:53.271Z,43.85
2019-01-23T00:59:20.772Z,43.70
2019-01-23T01:01:48.213Z,39.95
2019-01-23T01:04:15.599Z,45.12
2019-01-23T01:06:43.069Z,40.63
2019-01-23T01:09:10.492Z,53.60
2019-01-23T01:11:37.970Z,40.15
2019-01-23T01:14:05.367Z,59.15
2019-01-23T01:16:32.972Z,46.42
2019-01-23T01:19:00.504Z,40.35
2019-01-23T01:21:27.988Z,38.60
2019-01-23T01:23:55.502Z,46.83
2019-01-23T01:26:22.963Z,45.38
2019-01-23T01:28:55.988Z,48.15
2019-01-23T01:31:19.785Z,47.55
2019-01-23T01:33:47.150Z,46.68
2019-01-23T01:36:14.706Z,42.98
2019-01-23T01:38:42.295Z,46.68
2019-01-23T01:41:09.812Z,41.08
2019-01-23T01:43:37.259Z,48.40
2019-01-23T01:46:04.653Z,42.80
2019-01-23T01:48:32.152Z,39.58
2019-01-23T01:50:59.638Z,39.60
2019-01-23T01:53:27.005Z,39.75
2019-01-23T01:55:54.481Z,39.27
2019-01-23T01:58:22.387Z,38.48
2019-01-23T02:00:49.857Z,43.80
2019-01-23T02:03:17.257Z,42.30
2019-01-23T02:05:44.869Z,42.50
2019-01-23T02:08:12.716Z,40.40
2019-01-23T02:10:40.115Z,36.38
2019-01-23T02:13:07.678Z,49.98
2019-01-23T02:15:35.142Z,43.83
2019-01-23T02:18:02.579Z,37.98
2019-01-23T02:20:30.020Z,35.17
2019-01-23T02:22:57.616Z,38.05
2019-01-23T02:25:25.086Z,43.60
2019-01-23T02:27:52.674Z,39.27
2019-01-23T02:30:22.936Z,46.75
2019-01-23T02:32:50.466Z,39.30
2019-01-23T02:35:17.927Z,37.20
2019-01-23T02:37:45.505Z,44.60
2019-01-23T02:40:15.396Z,45.50
2019-01-23T02:42:42.816Z,41.30
2019-01-23T02:45:10.735Z,39.13
2019-01-23T02:47:38.143Z,39.60
2019-01-23T02:50:06.089Z,43.92
2019-01-23T02:52:33.927Z,37.03
2019-01-23T02:55:01.344Z,40.35
2019-01-23T02:57:29.227Z,36.93
2019-01-23T02:59:56.707Z,46.77
2019-01-23T03:02:24.189Z,40.43
2019-01-23T03:04:51.580Z,37.03
2019-01-23T03:07:19.002Z,41.53
2019-01-23T03:09:46.390Z,38.55
2019-01-23T03:12:13.825Z,40.85
2019-01-23T03:14:41.215Z,67.97
2019-01-23T03:17:08.767Z,42.60
2019-01-23T03:19:36.481Z,42.10
2019-01-23T03:22:04.009Z,37.63
2019-01-23T03:24:31.632Z,37.88
2019-01-23T03:26:59.158Z,41.13
2019-01-23T03:29:26.537Z,40.03
2019-01-23T03:31:53.998Z,41.37
2019-01-23T03:34:21.529Z,34.63
2019-01-23T03:36:49.176Z,40.43
2019-01-23T03:39:16.542Z,39.10
2019-01-23T03:41:43.982Z,37.70
2019-01-23T03:44:11.418Z,39.42
2019-01-23T03:46:38.991Z,38.95
2019-01-23T03:49:06.491Z,37.80
2019-01-23T03:51:33.916Z,41.30
2019-01-23T03:54:01.295Z,44.75
2019-01-23T03:56:28.827Z,40.20
2019-01-23T03:58:56.657Z,37.38
2019-01-23T04:01:24.055Z,36.25
2019-01-23T04:03:51.776Z,33.18
2019-01-23T04:06:19.256Z,36.55
2019-01-23T04:08:46.744Z,42.60
2019-01-23T04:11:14.112Z,39.42
2019-01-23T04:13:41.613Z,41.15
2019-01-23T04:16:09.062Z,40.35
2019-01-23T04:18:36.834Z,35.25
2019-01-23T04:21:04.444Z,43.63
2019-01-23T04:23:31.912Z,33.18
2019-01-23T04:25:59.352Z,35.75
2019-01-23T04:28:26.952Z,41.40
2019-01-23T04:30:54.443Z,40.92
2019-01-23T04:33:21.856Z,34.92
2019-01-23T04:35:49.308Z,38.58
2019-01-23T04:38:17.356Z,32.53
2019-01-23T04:40:44.950Z,37.98
2019-01-23T04:43:12.608Z,37.28
2019-01-23T04:45:40.016Z,32.48
2019-01-23T04:48:07.475Z,37.35
2019-01-23T04:50:54.456Z,33.85
2019-01-23T04:53:30.132Z,34.20
2019-01-23T04:56:00.802Z,33.58
2019-01-23T04:58:28.625Z,30.92
2019-01-23T05:00:56.093Z,33.30
2019-01-23T05:03:23.631Z,40.38
2019-01-23T05:05:51.263Z,37.28
2019-01-23T05:08:18.799Z,38.15
2019-01-23T05:10:46.324Z,37.15
2019-01-23T05:13:13.918Z,33.25
2019-01-23T05:15:41.435Z,34.55
2019-01-23T05:18:09.032Z,33.18
2019-01-23T05:20:36.670Z,38.78
2019-01-23T05:23:04.262Z,36.15
2019-01-23T05:25:32.007Z,36.63
2019-01-23T05:27:59.554Z,34.60
2019-01-23T05:30:26.962Z,33.38
2019-01-23T05:32:54.407Z,33.48
2019-01-23T05:35:21.903Z,36.60
2019-01-23T05:37:49.992Z,29.60
2019-01-23T05:40:17.462Z,34.10
2019-01-23T05:42:44.931Z,35.55
2019-01-23T05:45:13.062Z,35.33
2019-01-23T05:47:40.680Z,39.78
2019-01-23T05:50:11.071Z,32.85
2019-01-23T05:52:38.499Z,36.88
2019-01-23T05:55:07.617Z,37.78
2019-01-23T05:57:35.129Z,36.95
2019-01-23T06:00:03.944Z,42.13
2019-01-23T06:02:31.645Z,44.20
2019-01-23T06:04:59.268Z,36.42
2019-01-23T06:07:26.935Z,46.02
2019-01-23T06:09:54.465Z,31.23
2019-01-23T06:12:22.264Z,33.55
2019-01-23T06:14:49.877Z,34.65
2019-01-23T06:17:17.514Z,39.58
2019-01-23T06:19:45.127Z,39.75
2019-01-23T06:22:12.883Z,41.13
2019-01-23T06:24:40.464Z,37.40
2019-01-23T06:27:08.347Z,37.83
2019-01-23T06:29:35.941Z,43.63
2019-01-23T06:32:03.599Z,36.10
2019-01-23T06:34:31.441Z,40.00
2019-01-23T06:37:01.785Z,34.08
2019-01-23T06:39:29.391Z,37.20
2019-01-23T06:41:56.851Z,37.50
2019-01-23T06:44:25.346Z,36.08
2019-01-23T06:46:53.139Z,35.25
2019-01-23T06:49:20.715Z,36.73
2019-01-23T06:51:48.238Z,36.28
2019-01-23T06:54:15.670Z,41.13
2019-01-23T06:56:43.666Z,44.95
2019-01-23T06:59:11.132Z,40.05
2019-01-23T07:01:38.700Z,35.30
2019-01-23T07:04:06.361Z,38.48
2019-01-23T07:06:33.909Z,39.53
2019-01-23T07:09:01.342Z,38.13
2019-01-23T07:11:28.811Z,41.77
2019-01-23T07:13:56.268Z,43.40
2019-01-23T07:16:23.783Z,48.75
2019-01-23T07:18:51.627Z,38.70
2019-01-23T07:21:19.128Z,44.35
2019-01-23T07:23:47.144Z,48.02
2019-01-23T07:26:14.740Z,36.28
2019-01-23T07:28:42.315Z,42.70
2019-01-23T07:31:09.789Z,40.98
2019-01-23T07:33:37.332Z,44.20
2019-01-23T07:36:04.908Z,41.13
2019-01-23T07:38:32.472Z,40.48
2019-01-23T07:41:00.595Z,46.95
2019-01-23T07:43:28.118Z,40.00
2019-01-23T07:45:55.987Z,40.85
2019-01-23T07:48:23.510Z,39.90
2019-01-23T07:50:51.414Z,48.13
2019-01-23T07:53:19.012Z,41.25
2019-01-23T07:55:46.603Z,38.15
2019-01-23T07:58:14.191Z,38.58
2019-01-23T08:00:41.899Z,49.53
2019-01-23T08:03:09.437Z,43.17
2019-01-23T08:05:37.248Z,42.17
2019-01-23T08:08:04.742Z,40.03
2019-01-23T08:10:32.434Z,38.08
2019-01-23T08:12:59.883Z,41.90
2019-01-23T08:15:29.919Z,37.60
2019-01-23T08:17:57.836Z,43.60
2019-01-23T08:20:26.126Z,44.35
2019-01-23T08:22:53.751Z,43.38
2019-01-23T08:25:21.388Z,49.08
2019-01-23T08:27:49.129Z,51.65
2019-01-23T08:30:19.765Z,48.15
2019-01-23T08:32:47.920Z,45.15
2019-01-23T08:35:16.622Z,46.70
2019-01-23T08:37:44.099Z,47.13
2019-01-23T08:40:12.937Z,55.40
2019-01-23T08:42:40.757Z,42.20
2019-01-23T08:45:10.071Z,48.08
2019-01-23T08:47:37.575Z,48.00
2019-01-23T08:50:12.652Z,48.52
2019-01-23T08:52:40.419Z,46.73
2019-01-23T08:55:07.871Z,48.48
2019-01-23T08:57:35.518Z,46.73
2019-01-23T09:00:04.662Z,43.58
2019-01-23T09:02:32.873Z,47.85
2019-01-23T09:05:00.363Z,49.05
2019-01-23T09:07:27.919Z,50.23
2019-01-23T09:09:55.507Z,44.18
2019-01-23T09:12:23.369Z,45.05
2019-01-23T09:14:50.998Z,44.88
2019-01-23T09:17:18.495Z,46.85
2019-01-23T09:19:46.096Z,42.45
2019-01-23T09:22:13.784Z,40.45
2019-01-23T09:24:41.348Z,47.05
2019-01-23T09:27:09.073Z,51.10
2019-01-23T09:29:36.499Z,45.23
2019-01-23T09:32:40.318Z,48.78
2019-01-23T09:35:19.766Z,48.00
2019-01-23T09:38:30.478Z,41.85
2019-01-23T09:41:11.092Z,46.65
2019-01-23T09:44:03.556Z,49.80
2019-01-23T09:47:00.492Z,41.88
2019-01-23T09:50:02.940Z,45.28
2019-01-23T09:53:04.616Z,49.40
2019-01-23T09:55:32.245Z,45.48
2019-01-23T09:58:06.290Z,48.58
2019-01-23T10:00:33.778Z,44.55
2019-01-23T10:03:01.331Z,40.23
2019-01-23T10:05:28.888Z,46.08
2019-01-23T10:07:56.357Z,44.50
2019-01-23T10:10:24.127Z,42.38
2019-01-23T10:12:51.580Z,47.65
2019-01-23T10:15:31.707Z,46.48
2019-01-23T10:17:59.142Z,47.17
2019-01-23T10:20:26.656Z,46.15
2019-01-23T10:22:54.179Z,44.50
2019-01-23T10:25:21.989Z,43.65
2019-01-23T10:27:49.540Z,43.68
2019-01-23T10:30:17.234Z,38.80
2019-01-23T10:32:45.018Z,39.67
2019-01-23T10:35:13.463Z,46.85
2019-01-23T10:37:40.983Z,43.23
2019-01-23T10:40:12.509Z,41.10
2019-01-23T10:42:40.183Z,46.05
2019-01-23T10:45:09.950Z,48.83
2019-01-23T10:47:37.474Z,41.90
2019-01-23T10:50:05.730Z,49.48
2019-01-23T10:52:33.281Z,41.37
2019-01-23T10:55:00.923Z,45.10
2019-01-23T10:57:28.652Z,47.55
2019-01-23T10:59:56.292Z,50.65
2019-01-23T11:02:23.730Z,50.67
2019-01-23T11:04:51.591Z,50.90
2019-01-23T11:07:19.036Z,45.50
2019-01-23T11:09:46.734Z,43.63
2019-01-23T11:12:19.451Z,45.28
2019-01-23T11:14:47.124Z,44.83
2019-01-23T11:17:14.704Z,51.75
2019-01-23T11:19:42.522Z,48.70
2019-01-23T11:22:10.227Z,51.25
2019-01-23T11:24:37.783Z,46.20
2019-01-23T11:27:05.457Z,46.15
2019-01-23T11:29:33.442Z,45.60
2019-01-23T11:32:01.510Z,42.62
2019-01-23T11:34:28.955Z,51.13
2019-01-23T11:36:57.234Z,46.37
2019-01-23T11:39:25.884Z,43.55
2019-01-23T11:41:53.455Z,40.78
2019-01-23T11:44:21.008Z,39.88
2019-01-23T11:46:49.173Z,44.75
2019-01-23T11:49:16.871Z,40.35
2019-01-23T11:51:44.512Z,46.65
2019-01-23T11:54:13.391Z,42.48
2019-01-23T11:56:41.068Z,35.30
2019-01-23T11:59:08.693Z,47.17
2019-01-23T12:01:36.265Z,42.90
2019-01-23T12:04:04.499Z,46.98
2019-01-23T12:06:32.106Z,43.73
2019-01-23T12:08:59.632Z,42.85
2019-01-23T12:11:27.179Z,41.90
2019-01-23T12:13:54.621Z,44.90
2019-01-23T12:16:22.381Z,43.15
2019-01-23T12:18:49.885Z,39.00
2019-01-23T12:21:17.464Z,41.48
2019-01-23T12:23:45.178Z,39.00
2019-01-23T12:26:12.944Z,41.48
2019-01-23T12:28:42.456Z,41.08
2019-01-23T12:31:10.301Z,44.33
2019-01-23T12:33:38.222Z,43.20
2019-01-23T12:36:05.802Z,42.15
2019-01-23T12:38:33.291Z,42.85
2019-01-23T12:41:00.836Z,42.43
2019-01-23T12:43:28.465Z,43.50
2019-01-23T12:45:55.999Z,40.65
2019-01-23T12:48:23.852Z,42.60
2019-01-23T12:50:51.342Z,42.50
2019-01-23T12:53:19.137Z,45.33
2019-01-23T12:56:04.770Z,42.33
2019-01-23T12:58:32.371Z,39.08
2019-01-23T13:00:59.912Z,42.48
2019-01-23T13:03:27.560Z,43.70
2019-01-23T13:05:55.362Z,58.92
2019-01-23T13:08:22.897Z,45.48
2019-01-23T13:10:50.520Z,48.78
2019-01-23T13:13:19.237Z,44.35
2019-01-23T13:15:47.000Z,51.80
2019-01-23T13:18:14.459Z,43.70
2019-01-23T13:20:42.511Z,45.73
2019-01-23T13:23:10.003Z,51.13
2019-01-23T13:25:37.656Z,52.48
2019-01-23T13:28:05.539Z,48.87
2019-01-23T13:30:33.031Z,51.15
2019-01-23T13:33:00.617Z,51.20
2019-01-23T13:35:34.086Z,49.85
2019-01-23T13:38:01.689Z,47.93
2019-01-23T13:40:34.211Z,44.27
2019-01-23T13:43:02.346Z,45.90
2019-01-23T13:45:30.612Z,51.75
2019-01-23T13:47:58.353Z,48.33
2019-01-23T13:50:25.772Z,51.90
2019-01-23T13:52:53.370Z,51.18
2019-01-23T13:55:21.259Z,46.63
2019-01-23T13:57:49.511Z,53.98
2019-01-23T14:00:20.966Z,51.50
2019-01-23T14:02:49.165Z,54.60
2019-01-23T14:05:16.940Z,50.85
2019-01-23T14:07:44.752Z,57.50
2019-01-23T14:10:14.171Z,50.03
2019-01-23T14:12:41.761Z,49.05
2019-01-23T14:15:13.955Z,57.40
2019-01-23T14:17:41.570Z,55.05
2019-01-23T14:20:11.035Z,55.25
2019-01-23T14:22:38.632Z,59.35
2019-01-23T14:25:06.678Z,54.88
2019-01-23T14:27:34.127Z,62.55
2019-01-23T14:30:01.741Z,49.23
2019-01-23T14:32:29.198Z,57.25
2019-01-23T14:34:56.743Z,58.25
2019-01-23T14:37:24.323Z,59.20
2019-01-23T14:39:52.041Z,59.15
2019-01-23T14:42:19.454Z,49.70
2019-01-23T14:44:47.000Z,56.18
2019-01-23T14:47:14.607Z,54.93
2019-01-23T14:49:42.127Z,47.53
2019-01-23T14:52:09.695Z,47.65
2019-01-23T14:54:37.261Z,56.98
2019-01-23T14:57:04.782Z,64.15
2019-01-23T14:59:32.978Z,53.98
2019-01-23T15:02:00.532Z,51.68
2019-01-23T15:04:27.978Z,49.10
2019-01-23T15:06:55.417Z,50.10
2019-01-23T15:09:22.954Z,57.65
2019-01-23T15:11:50.646Z,50.88
2019-01-23T15:14:18.141Z,57.48
2019-01-23T15:16:45.711Z,52.67
2019-01-23T15:19:13.404Z,47.85
2019-01-23T15:21:40.972Z,51.85
2019-01-23T15:24:08.477Z,52.67
2019-01-23T15:26:35.896Z,51.28
2019-01-23T15:29:03.541Z,58.75
2019-01-23T15:31:31.121Z,53.45
2019-01-23T15:33:58.664Z,50.83
2019-01-23T15:36:26.263Z,51.18
2019-01-23T15:38:53.873Z,52.08
2019-01-23T15:41:21.290Z,51.20
2019-01-23T15:43:48.831Z,56.95
2019-01-23T15:46:16.313Z,62.00
2019-01-23T15:48:43.922Z,59.50
2019-01-23T15:51:11.425Z,59.18
2019-01-23T15:53:41.281Z,47.93
2019-01-23T15:56:09.537Z,49.35
2019-01-23T15:58:37.077Z,51.30
2019-01-23T16:01:04.660Z,58.68
2019-01-23T16:03:32.345Z,59.65
2019-01-23T16:05:59.962Z,52.67
2019-01-23T16:08:27.651Z,55.52
2019-01-23T16:10:55.474Z,53.42
2019-01-23T16:13:23.300Z,52.10
2019-01-23T16:15:50.950Z,45.95
2019-01-23T16:18:18.667Z,57.85
2019-01-23T16:20:46.514Z,59.75
2019-01-23T16:23:14.224Z,65.03
2019-01-23T16:25:41.694Z,53.15
2019-01-23T16:28:09.196Z,62.78
2019-01-23T16:30:38.785Z,47.98
2019-01-23T16:33:06.781Z,60.78
2019-01-23T16:35:38.570Z,52.65
2019-01-23T16:38:06.651Z,60.20
2019-01-23T16:40:34.291Z,53.08
2019-01-23T16:43:01.876Z,54.77
2019-01-23T16:45:29.833Z,46.25
2019-01-23T16:47:57.899Z,49.80
2019-01-23T16:50:25.881Z,55.03
2019-01-23T16:52:54.008Z,52.93
2019-01-23T16:55:22.169Z,48.08
2019-01-23T16:57:50.027Z,56.33
2019-01-23T17:00:19.907Z,56.90
2019-01-23T17:02:48.396Z,49.83
2019-01-23T17:05:21.652Z,56.53
2019-01-23T17:07:49.474Z,55.43
2019-01-23T17:10:18.743Z,56.25
2019-01-23T17:12:47.133Z,54.50
2019-01-23T17:15:15.273Z,55.60
2019-01-23T17:17:43.175Z,55.52
2019-01-23T17:20:15.398Z,48.33
2019-01-23T17:22:43.108Z,53.08
2019-01-23T17:25:11.412Z,53.78
2019-01-23T17:27:39.674Z,55.17
2019-01-23T17:30:08.811Z,55.88
2019-01-23T17:32:36.547Z,49.80
2019-01-23T17:35:05.989Z,60.28
2019-01-23T17:37:33.798Z,51.98
2019-01-23T17:40:01.656Z,50.88
2019-01-23T17:42:29.244Z,55.45
2019-01-23T17:44:56.833Z,48.65
2019-01-23T17:47:25.202Z,49.75
2019-01-23T17:49:52.749Z,55.08
2019-01-23T17:52:20.522Z,59.30
2019-01-23T17:54:48.593Z,57.70
2019-01-23T17:57:16.255Z,53.42
2019-01-23T17:59:43.951Z,57.60
2019-01-23T18:02:11.571Z,54.03
2019-01-23T18:04:39.132Z,54.10
2019-01-23T18:07:06.894Z,65.15
2019-01-23T18:09:35.679Z,61.65
2019-01-23T18:12:03.976Z,55.15
2019-01-23T18:14:31.543Z,49.38
2019-01-23T18:16:59.391Z,50.60
2019-01-23T18:19:27.371Z,57.20
2019-01-23T18:21:55.064Z,52.78
2019-01-23T18:24:22.806Z,49.23
2019-01-23T18:26:50.480Z,54.48
2019-01-23T18:29:18.079Z,41.90
2019-01-23T18:31:58.803Z,52.90
2019-01-23T18:34:50.711Z,52.95
2019-01-23T18:37:32.589Z,52.93
2019-01-23T18:40:42.096Z,54.27
2019-01-23T18:43:49.864Z,46.77
2019-01-23T18:46:55.317Z,44.15
2019-01-23T18:49:35.129Z,45.88
2019-01-23T18:52:21.036Z,44.20
2019-01-23T18:54:49.376Z,45.35
2019-01-23T18:57:20.520Z,47.75
2019-01-23T18:59:48.233Z,47.05
2019-01-23T19:02:15.848Z,39.88
2019-01-23T19:04:43.568Z,48.42
2019-01-23T19:07:11.330Z,43.10
2019-01-23T19:09:39.579Z,49.10
2019-01-23T19:12:07.097Z,50.70
2019-01-23T19:14:34.684Z,42.20
2019-01-23T19:17:02.353Z,51.13
2019-01-23T19:19:29.960Z,46.33
2019-01-23T19:21:57.676Z,43.38
2019-01-23T19:24:25.413Z,47.10
2019-01-23T19:26:53.363Z,52.98
2019-01-23T19:29:21.084Z,38.02
2019-01-23T19:31:48.775Z,47.95
2019-01-23T19:34:16.489Z,43.63
2019-01-23T19:36:44.293Z,44.42
2019-01-23T19:39:12.078Z,51.75
2019-01-23T19:41:39.926Z,45.88
2019-01-23T19:44:07.864Z,46.08
2019-01-23T19:46:35.789Z,49.88
2019-01-23T19:49:03.944Z,40.38
2019-01-23T19:51:31.669Z,53.80
2019-01-23T19:53:59.363Z,39.73
2019-01-23T19:56:27.910Z,46.42
2019-01-23T19:58:55.870Z,50.48
2019-01-23T20:01:23.751Z,40.95
2019-01-23T20:03:51.741Z,47.53
2019-01-23T20:06:19.624Z,44.40
2019-01-23T20:08:47.743Z,45.78
2019-01-23T20:11:15.295Z,43.70
2019-01-23T20:13:42.850Z,42.70
2019-01-23T20:16:10.515Z,54.42
2019-01-23T20:18:38.264Z,47.38
2019-01-23T20:21:05.992Z,44.55
2019-01-23T20:23:33.621Z,48.45
2019-01-23T20:26:01.375Z,57.05
2019-01-23T20:28:32.025Z,38.58
2019-01-23T20:30:59.955Z,44.90
2019-01-23T20:33:28.101Z,48.52
2019-01-23T20:35:57.078Z,40.00
2019-01-23T20:38:24.802Z,52.53
2019-01-23T20:40:52.679Z,39.92
2019-01-23T20:43:20.594Z,41.55
2019-01-23T20:45:48.538Z,44.85
2019-01-23T20:48:16.260Z,44.23
2019-01-23T20:50:43.936Z,39.33
2019-01-23T20:53:11.415Z,46.77
2019-01-23T20:55:39.397Z,49.60
2019-01-23T20:58:07.896Z,40.40
2019-01-23T21:00:35.580Z,42.45
2019-01-23T21:03:03.841Z,40.88
2019-01-23T21:05:31.487Z,37.17
2019-01-23T21:07:59.048Z,40.60
2019-01-23T21:10:26.876Z,36.08
2019-01-23T21:12:54.426Z,37.67
2019-01-23T21:15:24.271Z,42.30
2019-01-23T21:17:51.997Z,36.08
2019-01-23T21:20:19.698Z,41.37
2019-01-23T21:22:47.540Z,40.80
2019-01-23T21:25:15.663Z,43.38
2019-01-23T21:27:44.421Z,45.40
2019-01-23T21:30:17.688Z,40.83
2019-01-23T21:32:45.296Z,40.05
2019-01-23T21:35:13.312Z,42.53
2019-01-23T21:37:40.956Z,44.50
2019-01-23T21:40:12.785Z,50.08
2019-01-23T21:42:40.408Z,42.83
2019-01-23T21:45:09.392Z,43.42
2019-01-23T21:47:37.269Z,48.75
2019-01-23T21:50:06.158Z,45.80
2019-01-23T21:52:33.733Z,46.05
2019-01-23T21:55:01.342Z,41.58
2019-01-23T21:57:29.087Z,47.62
2019-01-23T21:59:56.551Z,45.00
2019-01-23T22:02:24.131Z,39.50
2019-01-23T22:04:52.216Z,45.65
2019-01-23T22:07:19.729Z,37.95
2019-01-23T22:09:47.248Z,47.80
2019-01-23T22:12:14.759Z,40.10
2019-01-23T22:14:42.196Z,47.40
2019-01-23T22:17:09.649Z,51.55
2019-01-23T22:19:37.227Z,38.95
2019-01-23T22:22:04.788Z,43.20
2019-01-23T22:24:32.279Z,40.88
2019-01-23T22:26:59.942Z,40.35
2019-01-23T22:29:27.355Z,42.00
2019-01-23T22:31:55.124Z,46.10
2019-01-23T22:34:22.502Z,46.42
2019-01-23T22:36:50.072Z,41.80
2019-01-23T22:39:17.616Z,48.68
2019-01-23T22:41:45.169Z,55.88
2019-01-23T22:44:12.645Z,41.63
2019-01-23T22:46:40.095Z,51.28
2019-01-23T22:49:07.957Z,46.53
2019-01-23T22:51:35.503Z,49.95
2019-01-23T22:54:03.490Z,45.38
2019-01-23T22:56:31.045Z,43.30
2019-01-23T22:58:58.535Z,42.20
2019-01-23T23:01:30.338Z,44.93
2019-01-23T23:04:03.371Z,46.90
2019-01-23T23:06:29.183Z,48.52
2019-01-23T23:08:57.343Z,38.95
2019-01-23T23:11:24.983Z,40.12
2019-01-23T23:13:52.547Z,48.28
2019-01-23T23:16:20.098Z,42.30
2019-01-23T23:18:47.618Z,38.85
2019-01-23T23:21:15.162Z,41.23
2019-01-23T23:23:42.559Z,47.80
2019-01-23T23:26:10.173Z,41.65
2019-01-23T23:28:38.005Z,46.80
2019-01-23T23:31:05.638Z,48.85
2019-01-23T23:33:33.217Z,42.78
2019-01-23T23:36:00.655Z,46.75
2019-01-23T23:38:28.795Z,46.00
2019-01-23T23:40:56.167Z,50.92
2019-01-23T23:43:23.675Z,43.30
2019-01-23T23:45:51.090Z,36.88
2019-01-23T23:48:19.224Z,42.75
2019-01-23T23:50:47.286Z,48.78
2019-01-23T23:53:14.880Z,50.45
2019-01-23T23:55:42.314Z,45.95
2019-01-23T23:58:09.818Z,42.35
